sensor_id;sensor_type;location;lat;lon;timestamp;pressure;altitude;pressure_sealevel;temperature;humidity
39455;BME280;25155;41.890;23.446;2022-10-22T00:00:03;92775.69;;;6.91;53.33
39455;BME280;25155;41.890;23.446;2022-10-22T00:02:30;92779.97;;;6.86;52.98
39455;BME280;25155;41.890;23.446;2022-10-22T00:04:58;92770.91;;;6.76;52.73
39455;BME280;25155;41.890;23.446;2022-10-22T00:07:25;92783.44;;;6.79;52.90
39455;BME280;25155;41.890;23.446;2022-10-22T00:09:52;92769.34;;;6.75;52.57
39455;BME280;25155;41.890;23.446;2022-10-22T00:12:21;92780.69;;;6.74;52.52
39455;BME280;25155;41.890;23.446;2022-10-22T00:14:48;92769.53;;;6.74;52.78
39455;BME280;25155;41.890;23.446;2022-10-22T00:17:16;92769.53;;;6.74;52.65
39455;BME280;25155;41.890;23.446;2022-10-22T00:19:44;92770.75;;;6.71;52.73
39455;BME280;25155;41.890;23.446;2022-10-22T00:22:11;92760.81;;;6.68;52.38
39455;BME280;25155;41.890;23.446;2022-10-22T00:24:39;92761.84;;;6.67;52.58
39455;BME280;25155;41.890;23.446;2022-10-22T00:27:08;92754.72;;;6.62;52.58
39455;BME280;25155;41.890;23.446;2022-10-22T00:29:37;92762.94;;;6.59;52.62
39455;BME280;25155;41.890;23.446;2022-10-22T00:32:05;92755.81;;;6.55;53.87
39455;BME280;25155;41.890;23.446;2022-10-22T00:34:33;92753.84;;;6.50;53.17
39455;BME280;25155;41.890;23.446;2022-10-22T00:37:00;92749.91;;;6.47;52.92
39455;BME280;25155;41.890;23.446;2022-10-22T00:39:28;92754.16;;;6.42;52.99
39455;BME280;25155;41.890;23.446;2022-10-22T00:41:56;92749.41;;;6.39;52.88
39455;BME280;25155;41.890;23.446;2022-10-22T00:44:59;92743.00;;;6.23;52.70
39455;BME280;25155;41.890;23.446;2022-10-22T00:47:29;92753.50;;;6.28;52.87
39455;BME280;25155;41.890;23.446;2022-10-22T00:49:58;92743.00;;;6.23;53.39
39455;BME280;25155;41.890;23.446;2022-10-22T00:52:26;92748.19;;;6.23;52.90
39455;BME280;25155;41.890;23.446;2022-10-22T00:54:54;92750.00;;;6.22;53.40
39455;BME280;25155;41.890;23.446;2022-10-22T00:57:23;92740.69;;;6.15;53.28
39455;BME280;25155;41.890;23.446;2022-10-22T00:59:50;92734.34;;;6.10;53.51
39455;BME280;25155;41.890;23.446;2022-10-22T01:02:19;92735.38;;;6.09;53.51
39455;BME280;25155;41.890;23.446;2022-10-22T01:04:46;92743.94;;;6.10;53.89
39455;BME280;25155;41.890;23.446;2022-10-22T01:07:16;92734.63;;;6.02;54.82
39455;BME280;25155;41.890;23.446;2022-10-22T01:09:52;92737.06;;;5.97;54.38
39455;BME280;25155;41.890;23.446;2022-10-22T01:12:33;92736.91;;;5.92;54.01
39455;BME280;25155;41.890;23.446;2022-10-22T01:15:13;92740.94;;;5.88;54.21
39455;BME280;25155;41.890;23.446;2022-10-22T01:17:52;92743.75;;;5.86;54.18
39455;BME280;25155;41.890;23.446;2022-10-22T01:20:53;92739.75;;;5.84;54.19
39455;BME280;25155;41.890;23.446;2022-10-22T01:23:37;92738.78;;;5.85;54.46
39455;BME280;25155;41.890;23.446;2022-10-22T01:26:20;92735.59;;;5.83;55.02
39455;BME280;25155;41.890;23.446;2022-10-22T01:28:57;92729.47;;;5.77;55.09
39455;BME280;25155;41.890;23.446;2022-10-22T01:31:30;92738.63;;;5.80;54.81
39455;BME280;25155;41.890;23.446;2022-10-22T01:34:00;92735.00;;;5.81;54.64
39455;BME280;25155;41.890;23.446;2022-10-22T01:36:29;92737.81;;;5.79;54.53
39455;BME280;25155;41.890;23.446;2022-10-22T01:39:00;92738.03;;;5.78;54.53
39455;BME280;25155;41.890;23.446;2022-10-22T01:41:28;92725.09;;;5.78;54.42
39455;BME280;25155;41.890;23.446;2022-10-22T01:43:57;92729.09;;;5.73;54.34
39455;BME280;25155;41.890;23.446;2022-10-22T01:46:26;92727.97;;;5.69;54.25
39455;BME280;25155;41.890;23.446;2022-10-22T01:49:13;92731.97;;;5.65;54.17
39455;BME280;25155;41.890;23.446;2022-10-22T01:51:52;92735.53;;;5.64;54.32
39455;BME280;25155;41.890;23.446;2022-10-22T01:54:30;92734.63;;;5.59;55.12
39455;BME280;25155;41.890;23.446;2022-10-22T01:57:06;92737.84;;;5.54;54.80
39455;BME280;25155;41.890;23.446;2022-10-22T01:59:44;92744.44;;;5.50;54.51
39455;BME280;25155;41.890;23.446;2022-10-22T02:02:23;92730.53;;;5.44;54.75
39455;BME280;25155;41.890;23.446;2022-10-22T02:04:57;92734.56;;;5.40;54.92
39455;BME280;25155;41.890;23.446;2022-10-22T02:07:28;92728.59;;;5.40;54.91
39455;BME280;25155;41.890;23.446;2022-10-22T02:09:57;92735.56;;;5.39;54.71
39455;BME280;25155;41.890;23.446;2022-10-22T02:12:27;92735.78;;;5.38;54.83
39455;BME280;25155;41.890;23.446;2022-10-22T02:14:59;92732.03;;;5.33;54.50
39455;BME280;25155;41.890;23.446;2022-10-22T02:17:31;92729.06;;;5.30;54.84
39455;BME280;25155;41.890;23.446;2022-10-22T02:20:03;92736.63;;;5.31;54.81
39455;BME280;25155;41.890;23.446;2022-10-22T02:25:01;92744.56;;;5.36;54.84
39455;BME280;25155;41.890;23.446;2022-10-22T02:27:34;92728.22;;;5.36;54.59
39455;BME280;25155;41.890;23.446;2022-10-22T02:30:06;92734.97;;;5.37;54.50
39455;BME280;25155;41.890;23.446;2022-10-22T02:32:38;92740.47;;;5.22;56.63
39455;BME280;25155;41.890;23.446;2022-10-22T02:35:09;92735.91;;;5.17;55.96
39455;BME280;25155;41.890;23.446;2022-10-22T02:37:38;92739.72;;;5.15;55.30
39455;BME280;25155;41.890;23.446;2022-10-22T02:40:07;92741.91;;;5.11;55.01
39455;BME280;25155;41.890;23.446;2022-10-22T02:42:35;92736.97;;;5.10;55.04
39455;BME280;25155;41.890;23.446;2022-10-22T02:45:06;92732.22;;;5.07;55.01
39455;BME280;25155;41.890;23.446;2022-10-22T02:47:34;92740.38;;;5.04;55.12
39455;BME280;25155;41.890;23.446;2022-10-22T02:50:01;92711.47;;;4.88;54.91
39455;BME280;25155;41.890;23.446;2022-10-22T02:52:29;92732.06;;;5.02;54.86
39455;BME280;25155;41.890;23.446;2022-10-22T02:54:57;92733.25;;;4.99;55.19
39455;BME280;25155;41.890;23.446;2022-10-22T02:57:25;92722.97;;;4.92;54.97
39455;BME280;25155;41.890;23.446;2022-10-22T02:59:52;92731.66;;;4.98;55.21
39455;BME280;25155;41.890;23.446;2022-10-22T03:02:21;92720.94;;;4.94;54.95
39455;BME280;25155;41.890;23.446;2022-10-22T03:04:48;92730.50;;;4.94;55.19
39455;BME280;25155;41.890;23.446;2022-10-22T03:07:15;92737.47;;;4.93;55.23
39455;BME280;25155;41.890;23.446;2022-10-22T03:09:43;92746.00;;;4.94;55.41
39455;BME280;25155;41.890;23.446;2022-10-22T03:12:10;92741.25;;;4.91;55.15
39455;BME280;25155;41.890;23.446;2022-10-22T03:14:37;92750.00;;;4.90;55.59
39455;BME280;25155;41.890;23.446;2022-10-22T03:17:04;92742.97;;;4.72;58.23
39455;BME280;25155;41.890;23.446;2022-10-22T03:19:33;92744.16;;;4.69;57.51
39455;BME280;25155;41.890;23.446;2022-10-22T03:22:03;92747.72;;;4.68;57.06
39455;BME280;25155;41.890;23.446;2022-10-22T03:24:35;92743.97;;;4.64;56.93
39455;BME280;25155;41.890;23.446;2022-10-22T03:27:04;92738.25;;;4.62;56.96
39455;BME280;25155;41.890;23.446;2022-10-22T03:29:33;92754.31;;;4.64;56.95
39455;BME280;25155;41.890;23.446;2022-10-22T03:32:02;92763.66;;;4.65;56.64
39455;BME280;25155;41.890;23.446;2022-10-22T03:34:29;92759.69;;;4.62;56.57
39455;BME280;25155;41.890;23.446;2022-10-22T03:36:59;92760.88;;;4.60;56.40
39455;BME280;25155;41.890;23.446;2022-10-22T03:39:28;92757.09;;;4.62;56.20
39455;BME280;25155;41.890;23.446;2022-10-22T03:41:57;92756.53;;;4.60;56.00
39455;BME280;25155;41.890;23.446;2022-10-22T03:44:25;92757.91;;;4.56;56.10
39455;BME280;25155;41.890;23.446;2022-10-22T03:46:53;92763.69;;;4.58;56.70
39455;BME280;25155;41.890;23.446;2022-10-22T03:49:20;92762.50;;;4.54;57.23
39455;BME280;25155;41.890;23.446;2022-10-22T03:51:48;92763.69;;;4.52;56.77
39455;BME280;25155;41.890;23.446;2022-10-22T03:54:16;92756.97;;;4.51;56.57
39455;BME280;25155;41.890;23.446;2022-10-22T03:56:44;92762.53;;;4.48;57.15
39455;BME280;25155;41.890;23.446;2022-10-22T03:59:11;92755.56;;;4.48;57.14
39455;BME280;25155;41.890;23.446;2022-10-22T04:01:40;92755.78;;;4.47;57.28
39455;BME280;25155;41.890;23.446;2022-10-22T04:04:07;92756.81;;;4.39;56.92
39455;BME280;25155;41.890;23.446;2022-10-22T04:06:34;92764.78;;;4.31;58.22
39455;BME280;25155;41.890;23.446;2022-10-22T04:09:02;92754.44;;;4.31;57.91
39455;BME280;25155;41.890;23.446;2022-10-22T04:11:30;92755.06;;;4.26;57.63
39455;BME280;25155;41.890;23.446;2022-10-22T04:13:58;92760.22;;;4.26;57.69
39455;BME280;25155;41.890;23.446;2022-10-22T04:16:26;92760.81;;;4.21;58.57
39455;BME280;25155;41.890;23.446;2022-10-22T04:18:56;92750.50;;;4.21;58.13
39455;BME280;25155;41.890;23.446;2022-10-22T04:21:24;92764.19;;;4.22;57.96
39455;BME280;25155;41.890;23.446;2022-10-22T04:23:52;92767.19;;;4.25;57.59
39455;BME280;25155;41.890;23.446;2022-10-22T04:26:20;92763.00;;;4.24;57.58
39455;BME280;25155;41.890;23.446;2022-10-22T04:28:49;92766.56;;;4.23;57.47
39455;BME280;25155;41.890;23.446;2022-10-22T04:31:19;92760.44;;;4.24;57.34
39455;BME280;25155;41.890;23.446;2022-10-22T04:33:50;92752.69;;;4.24;57.42
39455;BME280;25155;41.890;23.446;2022-10-22T04:36:18;92764.44;;;4.20;57.65
39455;BME280;25155;41.890;23.446;2022-10-22T04:38:57;92772.97;;;4.14;57.19
39455;BME280;25155;41.890;23.446;2022-10-22T04:41:27;92771.56;;;4.12;57.40
39455;BME280;25155;41.890;23.446;2022-10-22T04:44:11;92770.59;;;4.06;57.19
39455;BME280;25155;41.890;23.446;2022-10-22T04:46:44;92767.00;;;4.07;57.19
39455;BME280;25155;41.890;23.446;2022-10-22T04:49:12;92764.84;;;4.04;57.22
39455;BME280;25155;41.890;23.446;2022-10-22T04:51:42;92772.59;;;4.04;57.22
39455;BME280;25155;41.890;23.446;2022-10-22T04:54:10;92774.16;;;4.05;56.75
39455;BME280;25155;41.890;23.446;2022-10-22T04:56:41;92776.94;;;4.03;57.05
39455;BME280;25155;41.890;23.446;2022-10-22T04:59:11;92775.38;;;4.02;56.90
39455;BME280;25155;41.890;23.446;2022-10-22T05:01:40;92764.84;;;4.04;56.70
39455;BME280;25155;41.890;23.446;2022-10-22T05:04:11;92757.72;;;3.99;56.88
39455;BME280;25155;41.890;23.446;2022-10-22T05:06:42;92764.84;;;4.04;56.66
39455;BME280;25155;41.890;23.446;2022-10-22T05:09:13;92754.09;;;4.07;57.51
39455;BME280;25155;41.890;23.446;2022-10-22T05:11:41;92759.69;;;4.04;57.47
39455;BME280;25155;41.890;23.446;2022-10-22T05:14:12;92758.88;;;4.03;57.34
39455;BME280;25155;41.890;23.446;2022-10-22T05:16:40;92754.91;;;4.07;57.38
39455;BME280;25155;41.890;23.446;2022-10-22T05:19:11;92751.94;;;4.11;57.26
39455;BME280;25155;41.890;23.446;2022-10-22T05:21:40;92756.66;;;4.14;57.27
39455;BME280;25155;41.890;23.446;2022-10-22T05:24:08;92756.69;;;4.20;57.47
39455;BME280;25155;41.890;23.446;2022-10-22T05:26:35;92757.44;;;4.28;57.52
39455;BME280;25155;41.890;23.446;2022-10-22T05:29:02;92751.06;;;4.30;57.73
39455;BME280;25155;41.890;23.446;2022-10-22T05:31:31;92758.59;;;4.32;57.59
39455;BME280;25155;41.890;23.446;2022-10-22T05:33:58;92755.03;;;4.33;57.19
39455;BME280;25155;41.890;23.446;2022-10-22T05:36:26;92758.19;;;4.41;58.16
39455;BME280;25155;41.890;23.446;2022-10-22T05:38:54;92752.41;;;4.46;59.39
39455;BME280;25155;41.890;23.446;2022-10-22T05:41:23;92759.50;;;4.64;58.67
39455;BME280;25155;41.890;23.446;2022-10-22T05:43:53;92764.22;;;4.74;58.52
39455;BME280;25155;41.890;23.446;2022-10-22T05:46:22;92762.22;;;4.76;60.18
39455;BME280;25155;41.890;23.446;2022-10-22T05:48:51;92775.59;;;4.59;61.14
39455;BME280;25155;41.890;23.446;2022-10-22T05:51:19;92774.25;;;4.50;60.74
39455;BME280;25155;41.890;23.446;2022-10-22T05:53:50;92768.47;;;4.48;60.01
39455;BME280;25155;41.890;23.446;2022-10-22T05:56:18;92770.88;;;4.50;59.93
39455;BME280;25155;41.890;23.446;2022-10-22T05:58:45;92763.31;;;4.48;59.43
39455;BME280;25155;41.890;23.446;2022-10-22T06:01:14;92767.06;;;4.59;59.35
39455;BME280;25155;41.890;23.446;2022-10-22T06:03:42;92769.44;;;4.60;59.21
39455;BME280;25155;41.890;23.446;2022-10-22T06:06:18;92767.81;;;4.66;58.59
39455;BME280;25155;41.890;23.446;2022-10-22T06:08:46;92763.63;;;4.72;58.72
39455;BME280;25155;41.890;23.446;2022-10-22T06:11:15;92779.13;;;4.78;58.81
39455;BME280;25155;41.890;23.446;2022-10-22T06:13:43;92772.09;;;4.86;58.69
39455;BME280;25155;41.890;23.446;2022-10-22T06:16:11;92778.59;;;5.02;58.78
39455;BME280;25155;41.890;23.446;2022-10-22T06:18:38;92752.13;;;4.99;58.78
39455;BME280;25155;41.890;23.446;2022-10-22T06:21:08;92774.41;;;5.32;59.25
39455;BME280;25155;41.890;23.446;2022-10-22T06:23:38;92759.75;;;5.51;59.00
39455;BME280;25155;41.890;23.446;2022-10-22T06:26:06;92760.75;;;5.76;58.99
39455;BME280;25155;41.890;23.446;2022-10-22T06:28:34;92760.38;;;5.97;59.19
39455;BME280;25155;41.890;23.446;2022-10-22T06:31:02;92765.59;;;6.16;59.40
39455;BME280;25155;41.890;23.446;2022-10-22T06:33:31;92766.38;;;6.35;59.82
39455;BME280;25155;41.890;23.446;2022-10-22T06:36:05;92763.44;;;6.50;59.96
39455;BME280;25155;41.890;23.446;2022-10-22T06:38:33;92768.25;;;6.64;59.91
39455;BME280;25155;41.890;23.446;2022-10-22T06:41:06;92767.53;;;6.76;59.90
39455;BME280;25155;41.890;23.446;2022-10-22T06:43:34;92759.28;;;6.97;60.44
39455;BME280;25155;41.890;23.446;2022-10-22T06:46:03;92760.00;;;7.16;60.15
39455;BME280;25155;41.890;23.446;2022-10-22T06:48:32;92760.06;;;7.28;60.64
39455;BME280;25155;41.890;23.446;2022-10-22T06:51:02;92752.03;;;7.30;59.89
39455;BME280;25155;41.890;23.446;2022-10-22T06:53:30;92762.34;;;7.36;59.57
39455;BME280;25155;41.890;23.446;2022-10-22T06:55:57;92757.16;;;7.36;59.11
39455;BME280;25155;41.890;23.446;2022-10-22T06:58:26;92764.13;;;7.36;58.88
39455;BME280;25155;41.890;23.446;2022-10-22T07:01:00;92768.75;;;7.34;58.48
39455;BME280;25155;41.890;23.446;2022-10-22T07:03:28;92764.13;;;7.36;58.56
39455;BME280;25155;41.890;23.446;2022-10-22T07:05:58;92772.63;;;7.43;58.87
39455;BME280;25155;41.890;23.446;2022-10-22T07:08:26;92764.97;;;7.60;59.00
39455;BME280;25155;41.890;23.446;2022-10-22T07:10:54;92760.34;;;7.74;58.73
39455;BME280;25155;41.890;23.446;2022-10-22T07:13:23;92759.13;;;7.88;58.69
39455;BME280;25155;41.890;23.446;2022-10-22T07:15:53;92754.94;;;7.99;58.74
39455;BME280;25155;41.890;23.446;2022-10-22T07:18:21;92757.06;;;8.14;58.73
39455;BME280;25155;41.890;23.446;2022-10-22T07:20:48;92759.69;;;8.26;58.80
39455;BME280;25155;41.890;23.446;2022-10-22T07:23:16;92757.06;;;8.38;58.68
39455;BME280;25155;41.890;23.446;2022-10-22T07:25:43;92749.59;;;8.53;58.63
39455;BME280;25155;41.890;23.446;2022-10-22T07:28:11;92754.53;;;8.66;58.64
39455;BME280;25155;41.890;23.446;2022-10-22T07:30:38;92749.06;;;8.80;58.84
39455;BME280;25155;41.890;23.446;2022-10-22T07:33:08;92747.16;;;8.87;58.61
39455;BME280;25155;41.890;23.446;2022-10-22T07:35:36;92746.88;;;9.00;58.64
39455;BME280;25155;41.890;23.446;2022-10-22T07:38:04;92741.47;;;9.19;58.33
39455;BME280;25155;41.890;23.446;2022-10-22T07:40:32;92742.72;;;9.33;57.85
39455;BME280;25155;41.890;23.446;2022-10-22T07:43:00;92740.88;;;9.46;57.70
39455;BME280;25155;41.890;23.446;2022-10-22T07:45:28;92746.78;;;9.58;57.76
39455;BME280;25155;41.890;23.446;2022-10-22T07:47:55;92732.66;;;9.71;57.82
39455;BME280;25155;41.890;23.446;2022-10-22T07:50:25;92728.56;;;9.92;56.83
39455;BME280;25155;41.890;23.446;2022-10-22T07:52:53;92726.81;;;9.97;56.64
39455;BME280;25155;41.890;23.446;2022-10-22T07:55:20;92730.13;;;10.10;56.61
39455;BME280;25155;41.890;23.446;2022-10-22T07:57:47;92728.50;;;10.26;56.86
39455;BME280;25155;41.890;23.446;2022-10-22T08:00:15;92729.47;;;10.37;55.74
39455;BME280;25155;41.890;23.446;2022-10-22T08:02:42;92722.47;;;10.42;55.96
39455;BME280;25155;41.890;23.446;2022-10-22T08:05:10;92726.31;;;10.57;56.03
39455;BME280;25155;41.890;23.446;2022-10-22T08:07:39;92725.81;;;10.60;55.30
39455;BME280;25155;41.890;23.446;2022-10-22T08:10:08;92717.09;;;10.71;55.28
39455;BME280;25155;41.890;23.446;2022-10-22T08:12:36;92724.72;;;10.78;55.04
39455;BME280;25155;41.890;23.446;2022-10-22T08:15:04;92723.25;;;10.87;54.69
39455;BME280;25155;41.890;23.446;2022-10-22T08:17:32;92723.44;;;11.02;55.01
39455;BME280;25155;41.890;23.446;2022-10-22T08:19:59;92718.59;;;11.16;54.43
39455;BME280;25155;41.890;23.446;2022-10-22T08:22:27;92721.91;;;11.34;54.57
39455;BME280;25155;41.890;23.446;2022-10-22T08:24:55;92718.56;;;11.43;53.28
39455;BME280;25155;41.890;23.446;2022-10-22T08:27:23;92723.41;;;11.57;53.84
39455;BME280;25155;41.890;23.446;2022-10-22T08:29:51;92722.59;;;11.56;53.21
39455;BME280;25155;41.890;23.446;2022-10-22T08:32:18;92715.88;;;11.60;53.66
39455;BME280;25155;41.890;23.446;2022-10-22T08:34:45;92707.09;;;11.77;53.86
39455;BME280;25155;41.890;23.446;2022-10-22T08:37:13;92712.50;;;11.97;53.73
39455;BME280;25155;41.890;23.446;2022-10-22T08:39:41;92709.72;;;12.14;53.04
39455;BME280;25155;41.890;23.446;2022-10-22T08:42:35;92704.25;;;12.21;52.85
39455;BME280;25155;41.890;23.446;2022-10-22T08:45:11;92702.78;;;12.41;52.72
39455;BME280;25155;41.890;23.446;2022-10-22T08:50:35;92695.84;;;12.67;51.99
39455;BME280;25155;41.890;23.446;2022-10-22T08:53:07;92699.56;;;12.81;51.66
39455;BME280;25155;41.890;23.446;2022-10-22T08:55:38;92694.09;;;12.93;51.54
39455;BME280;25155;41.890;23.446;2022-10-22T08:58:13;92686.78;;;13.05;51.36
39455;BME280;25155;41.890;23.446;2022-10-22T09:00:49;92685.50;;;13.28;52.08
39455;BME280;25155;41.890;23.446;2022-10-22T09:03:27;92687.94;;;13.51;51.15
39455;BME280;25155;41.890;23.446;2022-10-22T09:06:02;92690.03;;;13.69;50.95
39455;BME280;25155;41.890;23.446;2022-10-22T09:08:32;92685.56;;;13.95;51.34
39455;BME280;25155;41.890;23.446;2022-10-22T09:11:05;92680.28;;;14.11;50.13
39455;BME280;25155;41.890;23.446;2022-10-22T09:13:34;92678.41;;;14.16;49.10
39455;BME280;25155;41.890;23.446;2022-10-22T09:16:12;92681.53;;;14.29;50.28
39455;BME280;25155;41.890;23.446;2022-10-22T09:18:48;92673.06;;;14.52;49.42
39455;BME280;25155;41.890;23.446;2022-10-22T09:21:26;92670.94;;;14.70;48.85
39455;BME280;25155;41.890;23.446;2022-10-22T09:24:08;92668.22;;;14.85;49.60
39455;BME280;25155;41.890;23.446;2022-10-22T09:26:38;92663.16;;;14.99;47.34
39455;BME280;25155;41.890;23.446;2022-10-22T09:29:15;92660.22;;;15.11;48.17
39455;BME280;25155;41.890;23.446;2022-10-22T09:31:43;92652.19;;;15.31;47.82
39455;BME280;25155;41.890;23.446;2022-10-22T09:34:13;92649.94;;;15.49;47.59
39455;BME280;25155;41.890;23.446;2022-10-22T09:36:41;92650.34;;;15.66;47.47
39455;BME280;25155;41.890;23.446;2022-10-22T09:39:22;92644.00;;;15.73;46.74
39455;BME280;25155;41.890;23.446;2022-10-22T09:41:49;92648.06;;;15.55;46.40
39455;BME280;25155;41.890;23.446;2022-10-22T09:44:19;92647.06;;;15.85;46.69
39455;BME280;25155;41.890;23.446;2022-10-22T09:46:46;92642.38;;;16.06;46.64
39455;BME280;25155;41.890;23.446;2022-10-22T09:49:15;92642.69;;;16.29;46.25
39455;BME280;25155;41.890;23.446;2022-10-22T09:51:51;92632.81;;;16.39;45.69
39455;BME280;25155;41.890;23.446;2022-10-22T09:54:22;92636.28;;;16.59;46.68
39455;BME280;25155;41.890;23.446;2022-10-22T09:56:53;92635.09;;;16.70;45.61
39455;BME280;25155;41.890;23.446;2022-10-22T09:59:29;92628.06;;;16.85;46.26
39455;BME280;25155;41.890;23.446;2022-10-22T10:02:05;92619.41;;;17.03;46.33
39455;BME280;25155;41.890;23.446;2022-10-22T10:04:34;92618.81;;;17.25;45.60
39455;BME280;25155;41.890;23.446;2022-10-22T10:07:14;92615.44;;;17.39;43.54
39455;BME280;25155;41.890;23.446;2022-10-22T10:09:43;92611.00;;;17.53;43.62
39455;BME280;25155;41.890;23.446;2022-10-22T10:12:25;92601.63;;;17.61;42.02
39455;BME280;25155;41.890;23.446;2022-10-22T10:15:05;92601.16;;;17.59;40.35
39455;BME280;25155;41.890;23.446;2022-10-22T10:17:44;92591.69;;;17.58;41.11
39455;BME280;25155;41.890;23.446;2022-10-22T10:20:28;92593.06;;;17.69;42.55
39455;BME280;25155;41.890;23.446;2022-10-22T10:23:07;92591.38;;;17.92;42.53
39455;BME280;25155;41.890;23.446;2022-10-22T10:25:45;92573.88;;;18.10;40.60
39455;BME280;25155;41.890;23.446;2022-10-22T10:28:28;92576.03;;;18.22;41.62
39455;BME280;25155;41.890;23.446;2022-10-22T10:31:08;92571.91;;;18.43;40.79
39455;BME280;25155;41.890;23.446;2022-10-22T10:33:45;92562.03;;;18.49;41.21
39455;BME280;25155;41.890;23.446;2022-10-22T10:36:21;92569.53;;;18.70;41.55
39455;BME280;25155;41.890;23.446;2022-10-22T10:38:56;92547.22;;;18.76;41.62
39455;BME280;25155;41.890;23.446;2022-10-22T10:41:33;92564.78;;;19.08;41.59
39455;BME280;25155;41.890;23.446;2022-10-22T10:44:46;92557.25;;;19.24;41.48
39455;BME280;25155;41.890;23.446;2022-10-22T10:47:42;92554.25;;;19.40;42.41
39455;BME280;25155;41.890;23.446;2022-10-22T10:50:17;92540.81;;;19.59;41.62
39455;BME280;25155;41.890;23.446;2022-10-22T10:52:52;92549.38;;;19.78;41.39
39455;BME280;25155;41.890;23.446;2022-10-22T10:55:29;92544.44;;;19.94;41.14
39455;BME280;25155;41.890;23.446;2022-10-22T10:58:05;92541.69;;;20.08;41.34
39455;BME280;25155;41.890;23.446;2022-10-22T11:00:45;92529.44;;;20.21;40.08
39455;BME280;25155;41.890;23.446;2022-10-22T11:03:46;92528.81;;;20.24;39.26
39455;BME280;25155;41.890;23.446;2022-10-22T11:06:20;92531.00;;;20.31;39.74
39455;BME280;25155;41.890;23.446;2022-10-22T11:08:52;92522.63;;;20.37;39.40
39455;BME280;25155;41.890;23.446;2022-10-22T11:11:30;92518.75;;;20.52;39.31
39455;BME280;25155;41.890;23.446;2022-10-22T11:14:04;92518.63;;;20.66;38.35
39455;BME280;25155;41.890;23.446;2022-10-22T11:16:38;92513.03;;;20.76;38.65
39455;BME280;25155;41.890;23.446;2022-10-22T11:19:15;92514.13;;;20.84;37.00
39455;BME280;25155;41.890;23.446;2022-10-22T11:21:51;92511.31;;;20.89;37.73
39455;BME280;25155;41.890;23.446;2022-10-22T11:24:25;92504.13;;;20.90;34.88
39455;BME280;25155;41.890;23.446;2022-10-22T11:26:59;92504.44;;;20.88;36.80
39455;BME280;25155;41.890;23.446;2022-10-22T11:29:32;92501.81;;;20.97;37.26
39455;BME280;25155;41.890;23.446;2022-10-22T11:32:02;92496.16;;;21.16;37.33
39455;BME280;25155;41.890;23.446;2022-10-22T11:34:33;92495.69;;;21.23;36.47
39455;BME280;25155;41.890;23.446;2022-10-22T11:37:05;92486.81;;;21.27;36.63
39455;BME280;25155;41.890;23.446;2022-10-22T11:39:41;92479.28;;;21.38;36.20
39455;BME280;25155;41.890;23.446;2022-10-22T11:42:10;92477.41;;;21.38;34.85
39455;BME280;25155;41.890;23.446;2022-10-22T11:44:47;92482.72;;;21.47;35.39
39455;BME280;25155;41.890;23.446;2022-10-22T11:47:19;92481.75;;;21.61;35.97
39455;BME280;25155;41.890;23.446;2022-10-22T11:50:13;92473.75;;;21.69;33.34
39455;BME280;25155;41.890;23.446;2022-10-22T11:52:52;92468.75;;;21.77;35.32
39455;BME280;25155;41.890;23.446;2022-10-22T11:55:42;92473.56;;;21.83;34.72
39455;BME280;25155;41.890;23.446;2022-10-22T11:58:38;92467.69;;;21.99;35.54
39455;BME280;25155;41.890;23.446;2022-10-22T12:01:39;92457.00;;;22.07;34.99
39455;BME280;25155;41.890;23.446;2022-10-22T12:04:21;92452.56;;;22.20;33.27
39455;BME280;25155;41.890;23.446;2022-10-22T12:06:54;92449.09;;;21.99;33.13
39455;BME280;25155;41.890;23.446;2022-10-22T12:09:23;92455.03;;;22.25;34.48
39455;BME280;25155;41.890;23.446;2022-10-22T12:12:02;92449.06;;;22.37;34.87
39455;BME280;25155;41.890;23.446;2022-10-22T12:14:33;92458.63;;;22.59;34.57
39455;BME280;25155;41.890;23.446;2022-10-22T12:17:06;92442.72;;;22.72;34.63
39455;BME280;25155;41.890;23.446;2022-10-22T12:19:38;92441.28;;;22.74;34.07
39455;BME280;25155;41.890;23.446;2022-10-22T12:22:14;92440.28;;;22.79;34.07
39455;BME280;25155;41.890;23.446;2022-10-22T12:24:45;92427.59;;;22.84;32.42
39455;BME280;25155;41.890;23.446;2022-10-22T12:27:15;92433.63;;;22.52;33.85
39455;BME280;25155;41.890;23.446;2022-10-22T12:29:43;92429.06;;;22.94;34.27
39455;BME280;25155;41.890;23.446;2022-10-22T12:32:13;92426.06;;;23.17;33.51
39455;BME280;25155;41.890;23.446;2022-10-22T12:34:45;92423.22;;;23.22;32.93
39455;BME280;25155;41.890;23.446;2022-10-22T12:37:18;92425.22;;;23.37;33.63
39455;BME280;25155;41.890;23.446;2022-10-22T12:39:46;92418.59;;;23.56;33.46
39455;BME280;25155;41.890;23.446;2022-10-22T12:42:15;92415.28;;;23.59;31.64
39455;BME280;25155;41.890;23.446;2022-10-22T12:44:44;92412.03;;;23.53;31.19
39455;BME280;25155;41.890;23.446;2022-10-22T12:47:14;92414.16;;;23.48;30.76
39455;BME280;25155;41.890;23.446;2022-10-22T12:49:45;92410.16;;;23.54;31.35
39455;BME280;25155;41.890;23.446;2022-10-22T12:52:13;92414.09;;;23.23;30.75
39455;BME280;25155;41.890;23.446;2022-10-22T12:54:44;92417.91;;;23.47;31.11
39455;BME280;25155;41.890;23.446;2022-10-22T12:57:16;92402.94;;;23.54;31.21
39455;BME280;25155;41.890;23.446;2022-10-22T12:59:46;92407.94;;;23.56;30.95
39455;BME280;25155;41.890;23.446;2022-10-22T13:02:18;92401.06;;;23.55;30.99
39455;BME280;25155;41.890;23.446;2022-10-22T13:05:14;92404.63;;;23.59;31.38
39455;BME280;25155;41.890;23.446;2022-10-22T13:07:43;92412.59;;;23.71;31.14
39455;BME280;25155;41.890;23.446;2022-10-22T13:10:18;92408.44;;;23.83;31.06
39455;BME280;25155;41.890;23.446;2022-10-22T13:12:51;92406.19;;;23.85;30.77
39455;BME280;25155;41.890;23.446;2022-10-22T13:15:31;92401.00;;;23.88;31.12
39455;BME280;25155;41.890;23.446;2022-10-22T13:18:02;92410.44;;;23.98;31.74
39455;BME280;25155;41.890;23.446;2022-10-22T13:20:33;92404.31;;;24.10;30.88
39455;BME280;25155;41.890;23.446;2022-10-22T13:23:04;92404.38;;;24.26;31.87